Novi Sad Rimski Sancevi, Serbia
Current Conditions -  °F | °C
As of 12:30 PM on Saturday 25 Oct 2014 (Local Time) from LYBT Reporting Station
Broken Clouds Broken Clouds  
Wind Chill: 48°   Ceiling: 2300
Heat Index: 48°   Visibility: 6mi
Dew Point: 39°   Wind: 3mph
Humidity: 71%   Direction: 160°SSE
Pressure: 30.27"   Gusts: NA
Location:  45.33°N, 19.85°E
Report Text: LYBT 251030Z 16003KT 100V270 9999 BKN023 09/04 Q1025 NOSIG
Loading
Personal Weather Stations






























Interactive Weather Map
Tropical Storm Tracking
New forecast layout! Learn more

10-Day Weather Forecast

Advertisements
Track Severe Weather on mobile